Mountain Lake, MN

10:02 AM CST on December 26, 2014 (GMT -0600)
Kimball Township | Change Station
CLOSE
Current Station
Personal Weather Station
Location: Mountain Lake, MN
Elevation: 1352 ft
Nearby Weather Stations
Active Advisory: Winter Weather Advisory

Elev 1352 ft 43.82 °N, 94.92 °W | Updated 6 seconds ago

Overcast
Overcast
29.1 °F
Feels Like 19 °F
N
11.4
Wind Variable Wind from WNW

Today
High -- | Low -- °F
--% Chance of Precip.
Yesterday
High -- | Low -- °F
Precip. -- in
7:53 AM 4:47 PM
Waxing Crescent, 27% visible
Pressure 30.02 in
Visibility 7.0 miles
Clouds Overcast 400 ft
Windchill 19 °F
Dew Point 29 °F
Humidity 99%
Rainfall 0.00 in
Snow Depth Not available.
UV 0 out of 12
Pollen .10 out of 12
Air Quality Not available.
Flu Activity Not available.
METAR KMWM 261553Z AUTO 35013KT 7SM OVC004 M02/M02 A3002 RMK AO2

More Conditions Fewer Conditions

Pressure 30.02 in
Visibility 7.0 miles
Clouds Overcast 400 ft
Windchill 19 °F
Dew Point 29 °F
Humidity 99%
Rainfall 0.00 in
Snow Depth Not available.
UV 0 out of 12
Pollen .10 out of 12
Air Quality Not available.
Flu Activity Not available.
METAR KMWM 261553Z AUTO 35013KT 7SM OVC004 M02/M02 A3002 RMK AO2

More Conditions Fewer Conditions

10-Day Weather Forecast

Almanac

Astronomy

Dec. 26, 2014 Rise Set
Actual Time
Civil Twilight
Nautical Twilight
Astronomical Twilight
Moon
Length of Visible Light
Length of Day
Tomorrow will be .
, % of the Moon is Illuminated

Today's Extremes

State Highs State Lows

Community

WunderPhotos

Upload Photos

1,780,625 photos uploaded!

WunderBlogs® & News

Nearby

Air Quality

  Air Quality AQ Index Pollutant
Not available.

Snow Depth

Station Depth Elevation

Earthquake Activity

City Distance Mag. Time & Date
Minimum magnitude displayed is 2.5.

Coastal Water Temperatures

Place Temperature

Nearby Weather Stations